createdAt,value
2018-03-31T00:00:55.555Z,8.97
2018-03-31T00:02:50.489Z,8.98
2018-03-31T00:03:49.997Z,8.87
2018-03-31T00:05:43.913Z,8.86
2018-03-31T00:06:43.900Z,8.76
2018-03-31T00:08:38.297Z,8.79
2018-03-31T00:09:38.292Z,8.74
2018-03-31T00:11:32.721Z,8.80
2018-03-31T00:12:32.733Z,8.62
2018-03-31T00:14:28.706Z,8.69
2018-03-31T00:15:28.666Z,8.62
2018-03-31T00:17:23.109Z,8.64
2018-03-31T00:18:23.606Z,8.62
2018-03-31T00:20:17.530Z,8.57
2018-03-31T00:21:18.038Z,8.52
2018-03-31T00:23:12.509Z,8.54
2018-03-31T00:24:11.982Z,8.44
2018-03-31T00:26:06.379Z,8.43
2018-03-31T00:27:06.391Z,8.34
2018-03-31T00:29:00.343Z,8.39
2018-03-31T00:29:59.799Z,8.31
2018-03-31T00:31:57.243Z,8.25
2018-03-31T00:32:55.754Z,8.28
2018-03-31T00:34:51.713Z,8.35
2018-03-31T00:35:51.690Z,8.43
2018-03-31T00:37:46.127Z,8.43
2018-03-31T00:38:46.115Z,8.29
2018-03-31T00:40:39.587Z,8.29
2018-03-31T00:41:39.544Z,8.25
2018-03-31T00:43:34.484Z,8.13
2018-03-31T00:44:33.967Z,8.14
2018-03-31T00:46:28.415Z,7.99
2018-03-31T00:47:28.415Z,7.89
2018-03-31T00:49:23.373Z,7.85
2018-03-31T00:50:22.788Z,7.70
2018-03-31T00:52:18.232Z,7.67
2018-03-31T00:53:17.234Z,7.56
2018-03-31T00:55:10.725Z,7.51
2018-03-31T00:56:10.676Z,7.48
2018-03-31T00:58:04.636Z,7.40
2018-03-31T00:59:04.110Z,7.29
2018-03-31T01:01:00.066Z,7.23
2018-03-31T01:02:00.556Z,7.18
2018-03-31T01:03:55.508Z,7.15
2018-03-31T01:04:55.489Z,7.11
2018-03-31T01:06:49.921Z,7.09
2018-03-31T01:07:49.918Z,7.15
2018-03-31T01:09:45.878Z,7.12
2018-03-31T01:10:45.854Z,7.15
2018-03-31T01:12:40.302Z,7.05
2018-03-31T01:13:40.284Z,7.00
2018-03-31T01:15:34.704Z,6.83
2018-03-31T01:16:35.237Z,6.91
2018-03-31T01:18:30.161Z,6.80
2018-03-31T01:19:29.124Z,6.79
2018-03-31T01:21:26.060Z,6.79
2018-03-31T01:22:25.585Z,6.83
2018-03-31T01:24:19.496Z,6.86
2018-03-31T01:25:19.465Z,6.80
2018-03-31T01:27:15.434Z,6.86
2018-03-31T01:28:15.406Z,6.83
2018-03-31T01:30:11.330Z,6.90
2018-03-31T01:31:11.326Z,6.83
2018-03-31T01:33:07.784Z,6.75
2018-03-31T01:34:07.255Z,6.75
2018-03-31T01:36:02.205Z,6.55
2018-03-31T01:37:01.695Z,6.62
2018-03-31T01:38:57.645Z,6.46
2018-03-31T01:39:56.650Z,6.43
2018-03-31T01:41:51.025Z,6.51
2018-03-31T01:42:50.517Z,6.33
2018-03-31T01:44:46.466Z,6.37
2018-03-31T01:45:46.449Z,6.36
2018-03-31T01:47:42.897Z,6.39
2018-03-31T01:48:42.388Z,6.49
2018-03-31T01:50:36.794Z,6.47
2018-03-31T01:51:36.811Z,6.44
2018-03-31T01:53:31.751Z,6.43
2018-03-31T01:54:31.246Z,6.34
2018-03-31T01:56:26.181Z,6.28
2018-03-31T01:57:25.662Z,6.14
2018-03-31T01:59:19.604Z,6.10
2018-03-31T02:00:19.609Z,6.10
2018-03-31T02:02:14.995Z,6.05
2018-03-31T02:03:15.520Z,6.06
2018-03-31T02:05:09.468Z,6.07
2018-03-31T02:06:09.947Z,5.95
2018-03-31T02:08:04.385Z,6.03
2018-03-31T02:09:03.846Z,6.00
2018-03-31T02:11:00.285Z,6.03
2018-03-31T02:12:00.296Z,6.03
2018-03-31T02:13:55.734Z,6.03
2018-03-31T02:14:55.710Z,6.02
2018-03-31T02:16:52.145Z,5.98
2018-03-31T02:17:51.625Z,5.88
2018-03-31T02:19:47.089Z,5.82
2018-03-31T02:20:46.065Z,5.82
2018-03-31T02:22:41.010Z,5.75
2018-03-31T02:23:40.518Z,5.77
2018-03-31T02:25:34.940Z,5.69
2018-03-31T02:26:34.925Z,5.66
2018-03-31T02:28:28.869Z,5.60
2018-03-31T02:29:28.351Z,5.62
2018-03-31T02:31:24.294Z,5.69
2018-03-31T02:32:24.301Z,5.80
2018-03-31T02:34:20.748Z,5.82
2018-03-31T02:35:20.219Z,5.77
2018-03-31T02:37:14.646Z,5.69
2018-03-31T02:38:14.647Z,5.73
2018-03-31T02:40:10.608Z,5.73
2018-03-31T02:41:10.582Z,5.75
2018-03-31T02:43:07.027Z,5.67
2018-03-31T02:44:06.513Z,5.64
2018-03-31T02:46:01.469Z,5.51
2018-03-31T02:47:00.935Z,5.52
2018-03-31T02:48:55.320Z,5.55
2018-03-31T02:49:55.326Z,5.46
2018-03-31T02:51:49.774Z,5.34
2018-03-31T02:52:49.765Z,5.41
2018-03-31T02:54:45.734Z,5.41
2018-03-31T02:55:46.713Z,5.36
2018-03-31T02:57:40.126Z,5.44
2018-03-31T02:58:40.146Z,5.26
2018-03-31T03:00:35.585Z,5.23
2018-03-31T03:01:33.566Z,5.41
2018-03-31T03:03:29.535Z,5.37
2018-03-31T03:04:30.012Z,5.37
2018-03-31T03:06:24.456Z,5.34
2018-03-31T03:07:23.925Z,5.27
2018-03-31T03:09:17.325Z,5.37
2018-03-31T03:10:17.875Z,5.34
2018-03-31T03:12:12.296Z,5.39
2018-03-31T03:13:11.756Z,5.28
2018-03-31T03:15:05.708Z,5.21
2018-03-31T03:16:05.173Z,5.31
2018-03-31T03:18:01.138Z,5.37
2018-03-31T03:19:01.089Z,5.33
2018-03-31T03:20:55.541Z,5.34
2018-03-31T03:21:55.529Z,5.42
2018-03-31T03:23:51.451Z,5.34
2018-03-31T03:24:51.976Z,5.42
2018-03-31T03:26:47.401Z,5.52
2018-03-31T03:27:47.376Z,5.49
2018-03-31T03:29:40.791Z,5.49
2018-03-31T03:30:41.323Z,5.49
2018-03-31T03:32:37.249Z,5.51
2018-03-31T03:33:36.748Z,5.44
2018-03-31T03:35:32.650Z,5.33
2018-03-31T03:36:33.171Z,5.37
2018-03-31T03:38:27.605Z,5.34
2018-03-31T03:39:27.029Z,5.23
2018-03-31T03:41:21.456Z,5.23
2018-03-31T03:42:21.448Z,5.33
2018-03-31T03:44:16.423Z,5.48
2018-03-31T03:45:16.402Z,5.42
2018-03-31T03:47:11.823Z,5.37
2018-03-31T03:48:11.808Z,5.39
2018-03-31T03:50:06.752Z,5.30
2018-03-31T03:51:06.240Z,5.36
2018-03-31T03:53:03.170Z,5.36
2018-03-31T03:54:02.143Z,5.31
2018-03-31T03:55:55.575Z,5.44
2018-03-31T03:56:55.593Z,5.27
2018-03-31T03:58:51.039Z,5.28
2018-03-31T03:59:49.975Z,5.28
2018-03-31T04:01:46.422Z,5.36
2018-03-31T04:02:45.883Z,5.26
2018-03-31T04:04:40.830Z,5.31
2018-03-31T04:05:40.303Z,5.30
2018-03-31T04:07:35.760Z,5.16
2018-03-31T04:08:35.757Z,5.16
2018-03-31T04:10:31.219Z,5.06
2018-03-31T04:11:30.724Z,5.08
2018-03-31T04:13:25.171Z,5.03
2018-03-31T04:14:25.138Z,4.98
2018-03-31T04:16:20.078Z,4.90
2018-03-31T04:17:19.558Z,5.00
2018-03-31T04:19:12.971Z,4.88
2018-03-31T04:20:13.504Z,5.02
2018-03-31T04:22:07.406Z,4.98
2018-03-31T04:23:07.909Z,4.95
2018-03-31T04:25:04.328Z,4.91
2018-03-31T04:26:03.843Z,4.74
2018-03-31T04:28:00.249Z,4.72
2018-03-31T04:28:59.231Z,4.79
2018-03-31T04:30:55.673Z,4.74
2018-03-31T04:31:55.146Z,4.72
2018-03-31T04:33:51.605Z,4.78
2018-03-31T04:34:51.078Z,4.83
2018-03-31T04:36:47.033Z,4.90
2018-03-31T04:37:47.022Z,4.88
2018-03-31T04:39:43.958Z,4.91
2018-03-31T04:40:42.950Z,4.79
2018-03-31T04:42:38.883Z,4.79
2018-03-31T04:43:38.875Z,4.76
2018-03-31T04:45:36.812Z,4.84
2018-03-31T04:46:35.317Z,4.66
2018-03-31T04:48:29.761Z,4.65
2018-03-31T04:49:28.764Z,4.68
2018-03-31T04:51:23.151Z,4.72
2018-03-31T04:52:22.613Z,4.68
2018-03-31T04:54:18.569Z,4.71
2018-03-31T04:55:18.560Z,4.57
2018-03-31T04:57:15.492Z,4.54
2018-03-31T04:58:15.023Z,4.69
2018-03-31T05:00:11.351Z,4.75
2018-03-31T05:01:10.916Z,4.65
2018-03-31T05:03:03.862Z,4.74
2018-03-31T05:04:03.858Z,4.69
2018-03-31T05:06:00.305Z,4.66
2018-03-31T05:06:59.763Z,4.69
2018-03-31T05:08:54.160Z,4.61
2018-03-31T05:09:54.162Z,4.68
2018-03-31T05:11:50.134Z,4.79
2018-03-31T05:12:50.093Z,4.72
2018-03-31T05:14:43.555Z,4.61
2018-03-31T05:15:43.528Z,4.66
2018-03-31T05:17:39.468Z,4.56
2018-03-31T05:18:39.432Z,4.65
2018-03-31T05:20:32.870Z,4.72
2018-03-31T05:21:32.864Z,4.69
2018-03-31T05:23:30.306Z,4.74
2018-03-31T05:24:28.789Z,4.75
2018-03-31T05:26:23.247Z,4.79
2018-03-31T05:27:23.741Z,4.87
2018-03-31T05:29:18.146Z,4.71
2018-03-31T05:30:17.589Z,4.69
2018-03-31T05:32:14.059Z,4.74
2018-03-31T05:33:14.042Z,4.72
2018-03-31T05:35:09.983Z,4.83
2018-03-31T05:36:09.475Z,4.78
2018-03-31T05:38:06.439Z,4.76
2018-03-31T05:39:05.405Z,4.79
2018-03-31T05:41:02.337Z,4.71
2018-03-31T05:42:01.304Z,4.75
2018-03-31T05:43:56.247Z,4.72
2018-03-31T05:44:55.741Z,4.76
2018-03-31T05:46:52.197Z,4.83
2018-03-31T05:47:52.179Z,4.90
2018-03-31T05:49:48.609Z,5.00
2018-03-31T05:50:47.578Z,5.08
2018-03-31T05:52:44.031Z,5.05
2018-03-31T05:53:43.515Z,5.21
2018-03-31T05:55:41.974Z,5.12
2018-03-31T05:56:41.552Z,5.20
2018-03-31T05:58:35.950Z,5.28
2018-03-31T05:59:35.934Z,5.31
2018-03-31T06:01:30.893Z,5.27
2018-03-31T06:02:30.369Z,5.26
2018-03-31T06:04:27.314Z,5.24
2018-03-31T06:05:26.818Z,5.21
2018-03-31T06:07:22.214Z,5.28
2018-03-31T06:08:22.210Z,5.45
2018-03-31T06:10:16.677Z,5.36
2018-03-31T06:11:16.646Z,5.46
2018-03-31T06:13:10.112Z,5.62
2018-03-31T06:14:10.585Z,5.60
2018-03-31T06:16:04.507Z,5.67
2018-03-31T06:17:04.504Z,5.75
2018-03-31T06:19:02.538Z,5.73
2018-03-31T06:20:02.531Z,5.77
2018-03-31T06:21:58.439Z,5.85
2018-03-31T06:22:58.443Z,5.91
2018-03-31T06:24:52.910Z,5.95
2018-03-31T06:25:52.897Z,6.02
2018-03-31T06:27:48.850Z,5.99
2018-03-31T06:28:48.804Z,6.13
2018-03-31T06:30:44.774Z,6.17
2018-03-31T06:31:44.769Z,6.14
2018-03-31T06:33:39.735Z,6.28
2018-03-31T06:34:39.187Z,6.26
2018-03-31T06:36:33.664Z,6.44
2018-03-31T06:37:33.627Z,6.54
2018-03-31T06:39:30.063Z,6.52
2018-03-31T06:40:29.545Z,6.60
2018-03-31T06:42:24.008Z,6.70
2018-03-31T06:43:23.991Z,6.79
2018-03-31T06:45:19.945Z,6.83
2018-03-31T06:46:20.430Z,6.80
2018-03-31T06:48:16.835Z,6.98
2018-03-31T06:49:15.830Z,6.97
2018-03-31T06:51:11.777Z,7.00
2018-03-31T06:52:11.777Z,7.13
2018-03-31T06:54:07.689Z,7.18
2018-03-31T06:55:08.206Z,7.27
2018-03-31T06:57:04.146Z,7.39
2018-03-31T06:58:04.127Z,7.44
2018-03-31T06:59:59.589Z,7.48
2018-03-31T07:00:59.576Z,7.61
2018-03-31T07:02:53.045Z,7.73
2018-03-31T07:03:53.015Z,7.73
2018-03-31T07:05:47.468Z,7.88
2018-03-31T07:06:47.434Z,7.91
2018-03-31T07:08:41.830Z,8.07
2018-03-31T07:09:42.385Z,8.13
2018-03-31T07:11:37.796Z,8.19
2018-03-31T07:12:38.296Z,8.26
2018-03-31T07:14:32.744Z,8.28
2018-03-31T07:15:32.236Z,8.25
2018-03-31T07:17:25.655Z,8.43
2018-03-31T07:18:25.646Z,8.34
2018-03-31T07:20:19.125Z,8.46
2018-03-31T07:21:19.076Z,8.53
2018-03-31T07:23:14.518Z,8.61
2018-03-31T07:24:13.519Z,8.49
2018-03-31T07:26:07.989Z,8.61
2018-03-31T07:27:07.958Z,8.67
2018-03-31T07:29:03.407Z,8.71
2018-03-31T07:30:02.911Z,8.82
2018-03-31T07:31:56.830Z,8.74
2018-03-31T07:32:56.805Z,8.86
2018-03-31T07:34:51.247Z,8.80
2018-03-31T07:35:51.764Z,8.86
2018-03-31T07:37:47.215Z,8.90
2018-03-31T07:38:47.707Z,8.85
2018-03-31T07:40:41.148Z,8.94
2018-03-31T07:41:40.615Z,8.90
2018-03-31T07:43:34.559Z,8.86
2018-03-31T07:44:34.558Z,8.83
2018-03-31T07:46:27.516Z,9.00
2018-03-31T07:47:27.477Z,9.05
2018-03-31T07:49:21.936Z,9.16
2018-03-31T07:50:20.872Z,9.16
2018-03-31T07:52:14.847Z,9.14
2018-03-31T07:53:14.836Z,9.16
2018-03-31T07:55:09.291Z,9.32
2018-03-31T07:56:08.762Z,9.30
2018-03-31T07:58:04.124Z,9.24
2018-03-31T07:59:03.168Z,9.27
2018-03-31T08:00:59.141Z,9.47
2018-03-31T08:01:59.641Z,9.41
2018-03-31T08:03:53.584Z,9.50
2018-03-31T08:04:54.071Z,9.52
2018-03-31T08:06:48.515Z,9.57
2018-03-31T08:07:48.000Z,9.62
2018-03-31T08:09:43.447Z,9.80
2018-03-31T08:10:42.946Z,9.78
2018-03-31T08:12:36.866Z,9.95
2018-03-31T08:13:37.375Z,9.89
2018-03-31T08:15:30.795Z,10.03
2018-03-31T08:16:30.808Z,10.02
2018-03-31T08:18:24.771Z,10.13
2018-03-31T08:19:25.226Z,10.07
2018-03-31T08:21:18.640Z,10.14
2018-03-31T08:22:18.121Z,10.15
2018-03-31T08:24:13.579Z,10.20
2018-03-31T08:25:13.082Z,10.26
2018-03-31T08:27:07.030Z,10.25
2018-03-31T08:28:06.997Z,10.26
2018-03-31T08:30:02.472Z,10.41
2018-03-31T08:31:01.448Z,10.42
2018-03-31T08:32:55.910Z,10.52
2018-03-31T08:33:55.893Z,10.59
2018-03-31T08:35:50.363Z,10.57
2018-03-31T08:36:49.347Z,10.61
2018-03-31T08:38:43.298Z,10.57
2018-03-31T08:39:42.742Z,10.59
2018-03-31T08:41:37.686Z,10.59
2018-03-31T08:42:36.679Z,10.58
2018-03-31T08:44:30.643Z,10.67
2018-03-31T08:45:31.121Z,10.80
2018-03-31T08:47:26.580Z,10.79
2018-03-31T08:48:27.066Z,10.94
2018-03-31T08:50:21.522Z,10.95
2018-03-31T08:51:21.003Z,10.95
2018-03-31T08:53:16.926Z,11.02
2018-03-31T08:54:17.450Z,11.05
2018-03-31T08:56:11.365Z,11.20
2018-03-31T08:57:11.894Z,11.23
2018-03-31T08:59:08.319Z,11.28
2018-03-31T09:00:07.266Z,11.28
2018-03-31T09:02:01.730Z,11.30
2018-03-31T09:03:01.706Z,11.24
2018-03-31T09:04:55.665Z,11.34
2018-03-31T09:05:55.131Z,11.48
2018-03-31T09:07:48.612Z,11.48
2018-03-31T09:08:49.096Z,11.43
2018-03-31T09:10:42.059Z,11.34
2018-03-31T09:11:42.548Z,11.34
2018-03-31T09:13:35.482Z,11.46
2018-03-31T09:14:35.456Z,11.46
2018-03-31T09:16:29.402Z,11.53
2018-03-31T09:17:29.407Z,11.60
2018-03-31T09:19:23.282Z,11.73
2018-03-31T09:20:23.287Z,11.73
2018-03-31T09:22:17.736Z,11.79
2018-03-31T09:23:17.725Z,11.91
2018-03-31T09:25:12.675Z,11.85
2018-03-31T09:26:12.175Z,11.94
2018-03-31T09:28:06.118Z,11.94
2018-03-31T09:29:05.616Z,12.00
2018-03-31T09:31:00.074Z,12.04
2018-03-31T09:32:00.048Z,12.10
2018-03-31T09:33:55.006Z,12.19
2018-03-31T09:34:54.494Z,12.15
2018-03-31T09:36:49.867Z,12.22
2018-03-31T09:37:48.952Z,12.18
2018-03-31T09:39:43.386Z,12.34
2018-03-31T09:40:43.391Z,12.37
2018-03-31T09:42:38.333Z,12.31
2018-03-31T09:43:39.337Z,12.38
2018-03-31T09:45:31.276Z,12.47
2018-03-31T09:46:31.248Z,12.33
2018-03-31T09:48:26.225Z,12.33
2018-03-31T09:49:25.679Z,12.29
2018-03-31T09:51:20.136Z,12.38
2018-03-31T09:52:20.628Z,12.45
2018-03-31T09:54:14.577Z,12.59
2018-03-31T09:55:14.560Z,12.61
2018-03-31T09:57:09.020Z,12.56
2018-03-31T09:58:08.999Z,12.63
2018-03-31T10:00:03.450Z,12.73
2018-03-31T10:01:03.944Z,12.88
2018-03-31T10:02:57.848Z,12.84
2018-03-31T10:03:58.382Z,12.81
2018-03-31T10:05:53.860Z,12.84
2018-03-31T10:06:52.814Z,12.76
2018-03-31T10:08:47.768Z,12.73
2018-03-31T10:09:45.714Z,12.78
2018-03-31T10:11:40.175Z,12.88
2018-03-31T10:12:40.666Z,12.94
2018-03-31T10:14:34.622Z,13.01
2018-03-31T10:15:35.127Z,12.99
2018-03-31T10:17:29.058Z,12.99
2018-03-31T10:18:29.034Z,13.01
2018-03-31T10:20:25.515Z,13.06
2018-03-31T10:21:24.984Z,13.07
2018-03-31T10:23:18.446Z,13.14
2018-03-31T10:24:19.377Z,13.13
2018-03-31T10:26:12.906Z,13.25
2018-03-31T10:27:12.881Z,13.29
2018-03-31T10:29:06.847Z,13.40
2018-03-31T10:30:06.287Z,13.39
2018-03-31T10:32:00.736Z,13.45
2018-03-31T10:33:00.720Z,13.47
2018-03-31T10:34:55.162Z,13.63
2018-03-31T10:35:55.159Z,13.62
2018-03-31T10:37:48.613Z,13.72
2018-03-31T10:38:49.126Z,13.62
2018-03-31T10:40:43.071Z,13.54
2018-03-31T10:41:42.123Z,13.55
2018-03-31T10:43:38.053Z,13.40
2018-03-31T10:44:38.537Z,13.37
2018-03-31T10:46:32.464Z,13.45
2018-03-31T10:47:32.473Z,13.58
2018-03-31T10:49:26.904Z,13.58
2018-03-31T10:50:26.914Z,13.50
2018-03-31T10:52:21.374Z,13.45
2018-03-31T10:53:21.361Z,13.47
2018-03-31T10:55:15.851Z,13.47
2018-03-31T10:56:16.336Z,13.63
2018-03-31T10:58:11.272Z,13.55
2018-03-31T10:59:11.761Z,13.47
2018-03-31T11:01:04.724Z,13.58
2018-03-31T11:02:04.692Z,13.44
2018-03-31T11:03:59.654Z,13.45
2018-03-31T11:04:59.130Z,13.44
2018-03-31T11:06:52.610Z,13.37
2018-03-31T11:07:52.554Z,13.28
2018-03-31T11:09:47.444Z,13.24
2018-03-31T11:10:46.040Z,13.29
2018-03-31T11:12:40.517Z,13.45
2018-03-31T11:13:40.492Z,13.48
2018-03-31T11:15:34.963Z,13.40
2018-03-31T11:16:34.934Z,13.55
2018-03-31T11:18:29.889Z,13.63
2018-03-31T11:19:29.348Z,13.62
2018-03-31T11:21:24.801Z,13.72
2018-03-31T11:22:24.302Z,13.78
2018-03-31T11:24:18.771Z,13.81
2018-03-31T11:25:18.225Z,13.95
2018-03-31T11:27:11.714Z,14.06
2018-03-31T11:28:11.661Z,14.19
2018-03-31T11:30:06.156Z,14.27
2018-03-31T11:31:06.137Z,14.31
2018-03-31T11:33:02.091Z,14.38
2018-03-31T11:34:00.588Z,14.38
2018-03-31T11:35:55.050Z,14.23
2018-03-31T11:36:55.041Z,14.12
2018-03-31T11:38:50.962Z,13.90
2018-03-31T11:39:50.945Z,13.83
2018-03-31T11:41:46.905Z,13.91
2018-03-31T11:42:45.906Z,13.97
2018-03-31T11:44:39.357Z,13.94
2018-03-31T11:45:39.356Z,14.06
2018-03-31T11:47:33.791Z,14.33
2018-03-31T11:48:33.262Z,14.49
2018-03-31T11:50:27.703Z,14.48
2018-03-31T11:51:28.241Z,14.46
2018-03-31T11:53:23.171Z,14.57
2018-03-31T11:54:22.148Z,14.57
2018-03-31T11:56:17.100Z,14.70
2018-03-31T11:57:17.097Z,14.86
2018-03-31T11:59:11.534Z,14.94
2018-03-31T12:00:10.998Z,14.80
2018-03-31T12:02:04.444Z,14.86
2018-03-31T12:03:04.976Z,14.79
2018-03-31T12:04:58.896Z,14.93
2018-03-31T12:05:58.892Z,14.97
2018-03-31T12:07:52.850Z,15.08
2018-03-31T12:08:52.330Z,15.22
2018-03-31T12:10:46.808Z,15.20
2018-03-31T12:11:46.782Z,15.27
2018-03-31T12:13:40.224Z,15.34
2018-03-31T12:14:40.749Z,15.35
2018-03-31T12:16:34.739Z,15.37
2018-03-31T12:17:34.699Z,15.34
2018-03-31T12:19:30.665Z,15.05
2018-03-31T12:20:29.149Z,14.95
2018-03-31T12:22:23.597Z,14.95
2018-03-31T12:23:23.585Z,14.93
2018-03-31T12:25:17.554Z,14.83
2018-03-31T12:26:17.983Z,14.87
2018-03-31T12:28:11.998Z,14.79
2018-03-31T12:29:11.496Z,14.80
2018-03-31T12:31:05.959Z,14.97
2018-03-31T12:32:06.455Z,14.98
2018-03-31T12:34:00.368Z,15.04
2018-03-31T12:35:00.886Z,15.15
2018-03-31T12:36:54.854Z,15.10
2018-03-31T12:37:54.847Z,15.07
2018-03-31T12:39:50.792Z,14.95
2018-03-31T12:40:50.294Z,14.97
2018-03-31T12:42:42.770Z,14.97
2018-03-31T12:43:42.785Z,15.01
2018-03-31T12:45:36.248Z,15.22
2018-03-31T12:46:36.259Z,15.15
2018-03-31T12:48:32.206Z,15.34
2018-03-31T12:49:30.662Z,15.41
2018-03-31T12:51:24.127Z,15.52
2018-03-31T12:52:24.095Z,15.49
2018-03-31T12:54:17.573Z,15.53
2018-03-31T12:55:18.052Z,15.56
2018-03-31T12:57:11.509Z,15.56
2018-03-31T12:58:11.530Z,15.47
2018-03-31T13:00:05.466Z,15.44
2018-03-31T13:01:05.447Z,15.37
2018-03-31T13:03:00.906Z,15.51
2018-03-31T13:04:00.418Z,15.45
2018-03-31T13:05:53.840Z,15.63
2018-03-31T13:06:53.843Z,15.52
2018-03-31T13:08:47.794Z,15.37
2018-03-31T13:09:47.741Z,15.37
2018-03-31T13:11:42.181Z,15.27
2018-03-31T13:12:42.179Z,15.02
2018-03-31T13:14:37.155Z,14.93
2018-03-31T13:15:36.628Z,14.87
2018-03-31T13:17:31.124Z,14.80
2018-03-31T13:18:31.593Z,14.79
2018-03-31T13:20:25.566Z,14.85
2018-03-31T13:21:26.045Z,15.00
2018-03-31T13:23:20.498Z,14.86
2018-03-31T13:24:19.986Z,14.86
2018-03-31T13:26:13.427Z,14.74
2018-03-31T13:27:13.449Z,14.59
2018-03-31T13:29:08.913Z,14.77
2018-03-31T13:30:07.854Z,14.75
2018-03-31T13:32:02.814Z,14.83
2018-03-31T13:33:02.807Z,14.85
2018-03-31T13:34:55.766Z,14.95
2018-03-31T13:35:56.258Z,14.94
2018-03-31T13:37:49.209Z,14.71
2018-03-31T13:38:49.175Z,14.79
2018-03-31T13:40:43.656Z,14.74
2018-03-31T13:41:44.128Z,14.75
2018-03-31T13:43:37.121Z,14.77
2018-03-31T13:44:37.623Z,14.74
2018-03-31T13:46:32.545Z,14.61
2018-03-31T13:47:32.034Z,14.52
2018-03-31T13:49:26.477Z,14.38
2018-03-31T13:50:25.975Z,14.46
2018-03-31T13:52:20.969Z,14.51
2018-03-31T13:53:19.936Z,14.36
2018-03-31T13:55:15.904Z,14.46
2018-03-31T13:56:15.882Z,14.36
2018-03-31T13:58:12.339Z,14.48
2018-03-31T13:59:11.338Z,14.41
2018-03-31T14:01:05.846Z,14.36
2018-03-31T14:02:06.772Z,14.36
2018-03-31T14:04:00.268Z,14.46
2018-03-31T14:05:00.247Z,14.52
2018-03-31T14:06:54.706Z,14.64
2018-03-31T14:07:54.675Z,14.70
2018-03-31T14:09:48.142Z,14.57
2018-03-31T14:10:49.159Z,14.61
2018-03-31T14:12:43.089Z,14.46
2018-03-31T14:13:42.594Z,14.45
2018-03-31T14:15:38.051Z,14.31
2018-03-31T14:16:37.030Z,14.34
2018-03-31T14:18:30.425Z,14.23
2018-03-31T14:19:30.440Z,14.33
2018-03-31T14:21:24.904Z,14.59
2018-03-31T14:22:24.894Z,14.63
2018-03-31T14:24:19.361Z,14.77
2018-03-31T14:25:18.361Z,14.80
2018-03-31T14:27:12.819Z,14.94
2018-03-31T14:28:12.788Z,14.87
2018-03-31T14:30:07.773Z,14.98
2018-03-31T14:31:07.246Z,15.08
2018-03-31T14:33:01.190Z,15.18
2018-03-31T14:34:00.687Z,15.18
2018-03-31T14:35:57.652Z,15.00
2018-03-31T14:36:56.671Z,15.08
2018-03-31T14:38:52.619Z,15.01
2018-03-31T14:39:51.084Z,15.04
2018-03-31T14:41:46.041Z,15.08
2018-03-31T14:42:45.559Z,15.16
2018-03-31T14:44:38.953Z,14.97
2018-03-31T14:45:38.984Z,14.95
2018-03-31T14:47:33.941Z,14.80
2018-03-31T14:48:33.426Z,14.83
2018-03-31T14:50:28.382Z,14.77
2018-03-31T14:51:27.865Z,14.66
2018-03-31T14:53:24.326Z,14.57
2018-03-31T14:54:23.809Z,14.53
2018-03-31T14:56:18.766Z,14.42
2018-03-31T14:57:18.268Z,14.31
2018-03-31T14:59:14.212Z,14.09
2018-03-31T15:00:12.664Z,14.12
2018-03-31T15:02:07.662Z,14.11
2018-03-31T15:03:07.127Z,14.06
2018-03-31T15:05:01.584Z,14.03
2018-03-31T15:06:01.591Z,14.09
2018-03-31T15:07:56.041Z,14.06
2018-03-31T15:08:56.532Z,14.09
2018-03-31T15:10:49.475Z,14.13
2018-03-31T15:11:49.964Z,14.28
2018-03-31T15:13:42.909Z,14.26
2018-03-31T15:14:43.404Z,14.24
2018-03-31T15:16:36.847Z,14.27
2018-03-31T15:17:36.335Z,14.28
2018-03-31T15:19:29.779Z,14.15
2018-03-31T15:20:29.782Z,14.13
2018-03-31T15:22:24.262Z,14.16
2018-03-31T15:23:24.221Z,14.13
2018-03-31T15:25:18.676Z,14.13
2018-03-31T15:26:18.665Z,14.19
2018-03-31T15:28:13.633Z,14.11
2018-03-31T15:29:13.114Z,13.99
2018-03-31T15:31:06.561Z,14.13
2018-03-31T15:32:06.579Z,14.13
2018-03-31T15:34:01.509Z,14.19
2018-03-31T15:35:01.021Z,14.26
2018-03-31T15:36:55.988Z,14.30
2018-03-31T15:37:55.449Z,14.34
2018-03-31T15:39:51.906Z,14.46
2018-03-31T15:40:49.904Z,14.49
2018-03-31T15:42:45.355Z,14.45
2018-03-31T15:43:44.329Z,14.45
2018-03-31T15:45:39.797Z,14.48
2018-03-31T15:46:39.319Z,14.42
2018-03-31T15:48:35.258Z,14.41
2018-03-31T15:49:34.720Z,14.41
2018-03-31T15:51:28.678Z,14.39
2018-03-31T15:52:28.158Z,14.45
2018-03-31T15:54:23.136Z,14.45
2018-03-31T15:55:23.111Z,14.42
2018-03-31T15:57:16.553Z,14.45
2018-03-31T15:58:16.039Z,14.45
2018-03-31T16:00:10.994Z,14.36
2018-03-31T16:01:10.994Z,14.28
2018-03-31T16:03:04.944Z,14.20
2018-03-31T16:04:05.430Z,14.19
2018-03-31T16:05:59.387Z,14.15
2018-03-31T16:06:59.895Z,14.11
2018-03-31T16:08:55.330Z,14.03
2018-03-31T16:09:53.774Z,14.08
2018-03-31T16:11:47.741Z,14.06
2018-03-31T16:12:47.237Z,14.06
2018-03-31T16:14:41.683Z,14.01
2018-03-31T16:15:41.715Z,13.99
2018-03-31T16:17:36.126Z,14.03
2018-03-31T16:18:36.109Z,14.08
2018-03-31T16:20:31.066Z,14.08
2018-03-31T16:21:30.564Z,14.19
2018-03-31T16:23:25.030Z,14.15
2018-03-31T16:24:25.013Z,14.02
2018-03-31T16:26:19.494Z,13.95
2018-03-31T16:27:19.442Z,13.95
2018-03-31T16:29:13.916Z,13.99
2018-03-31T16:30:14.399Z,14.02
2018-03-31T16:32:11.824Z,14.08
2018-03-31T16:33:10.827Z,14.03
2018-03-31T16:35:05.807Z,14.12
2018-03-31T16:36:06.302Z,14.08
2018-03-31T16:38:00.258Z,14.13
2018-03-31T16:39:00.742Z,14.08
2018-03-31T16:40:54.686Z,13.94
2018-03-31T16:41:55.188Z,14.05
2018-03-31T16:43:50.641Z,13.91
2018-03-31T16:44:49.139Z,13.79
2018-03-31T16:46:42.581Z,13.81
2018-03-31T16:47:42.591Z,13.83
2018-03-31T16:49:37.045Z,13.83
2018-03-31T16:50:37.017Z,13.79
2018-03-31T16:52:31.990Z,13.83
2018-03-31T16:53:31.971Z,13.81
2018-03-31T16:55:25.905Z,13.66
2018-03-31T16:56:26.420Z,13.70
2018-03-31T16:58:21.391Z,13.68
2018-03-31T16:59:19.381Z,13.78
2018-03-31T17:01:13.854Z,13.68
2018-03-31T17:02:14.339Z,13.66
2018-03-31T17:04:07.284Z,13.55
2018-03-31T17:05:07.780Z,13.57
2018-03-31T17:07:02.718Z,13.53
2018-03-31T17:08:02.222Z,13.58
2018-03-31T17:09:56.665Z,13.54
2018-03-31T17:10:56.729Z,13.50
2018-03-31T17:12:51.098Z,13.48
2018-03-31T17:13:51.085Z,13.44
2018-03-31T17:15:45.072Z,13.44
2018-03-31T17:16:45.069Z,13.48
2018-03-31T17:18:40.489Z,13.44
2018-03-31T17:19:39.984Z,13.40
2018-03-31T17:21:35.893Z,13.32
2018-03-31T17:22:35.382Z,13.37
2018-03-31T17:24:29.843Z,13.35
2018-03-31T17:25:29.821Z,13.36
2018-03-31T17:27:24.298Z,13.28
2018-03-31T17:28:24.772Z,13.17
2018-03-31T17:30:18.737Z,13.20
2018-03-31T17:31:17.838Z,13.11
2018-03-31T17:33:14.178Z,13.02
2018-03-31T17:34:12.194Z,13.03
2018-03-31T17:36:05.645Z,12.98
2018-03-31T17:37:06.140Z,12.89
2018-03-31T17:39:01.076Z,12.89
2018-03-31T17:40:00.037Z,12.91
2018-03-31T17:41:54.504Z,12.83
2018-03-31T17:42:55.014Z,12.84
2018-03-31T17:44:49.963Z,12.74
2018-03-31T17:45:49.452Z,12.70
2018-03-31T17:47:44.395Z,12.66
2018-03-31T17:48:43.895Z,12.74
2018-03-31T17:50:36.830Z,12.55
2018-03-31T17:51:36.822Z,12.53
2018-03-31T17:53:31.279Z,12.53
2018-03-31T17:54:31.244Z,12.53
2018-03-31T17:56:25.734Z,12.44
2018-03-31T17:57:25.682Z,12.26
2018-03-31T17:59:20.700Z,12.33
2018-03-31T18:00:20.111Z,12.33
2018-03-31T18:02:15.085Z,12.20
2018-03-31T18:03:15.054Z,12.20
2018-03-31T18:05:08.997Z,12.16
2018-03-31T18:06:09.550Z,12.31
2018-03-31T18:08:04.949Z,12.23
2018-03-31T18:09:04.920Z,12.28
2018-03-31T18:11:00.895Z,12.31
2018-03-31T18:12:01.379Z,12.44
2018-03-31T18:13:54.301Z,12.37
2018-03-31T18:14:54.831Z,12.34
2018-03-31T18:16:47.785Z,12.25
2018-03-31T18:17:47.740Z,12.20
2018-03-31T18:19:43.679Z,12.16
2018-03-31T18:20:43.687Z,12.18
2018-03-31T18:22:38.151Z,12.13
2018-03-31T18:23:38.647Z,12.04
2018-03-31T18:25:33.073Z,12.01
2018-03-31T18:26:32.568Z,12.04
2018-03-31T18:28:27.034Z,11.97
2018-03-31T18:29:27.521Z,11.86
2018-03-31T18:31:21.460Z,11.91
2018-03-31T18:32:21.416Z,11.73
2018-03-31T18:34:15.857Z,11.76
2018-03-31T18:35:15.851Z,11.81
2018-03-31T18:37:10.321Z,11.75
2018-03-31T18:38:10.313Z,11.76
2018-03-31T18:40:05.268Z,11.75
2018-03-31T18:41:04.761Z,11.85
2018-03-31T18:42:59.696Z,11.73
2018-03-31T18:43:59.194Z,11.70
2018-03-31T18:45:53.663Z,11.57
2018-03-31T18:46:53.638Z,11.67
2018-03-31T18:48:48.117Z,11.66
2018-03-31T18:49:48.054Z,11.68
2018-03-31T18:51:41.470Z,11.64
2018-03-31T18:52:41.493Z,11.61
2018-03-31T18:54:35.949Z,11.76
2018-03-31T18:55:35.905Z,11.71
2018-03-31T18:57:29.387Z,11.71
2018-03-31T18:58:29.356Z,11.73
2018-03-31T19:00:23.814Z,11.85